Skip to main content

Viana do Alentejo

ID 1210847 · 38.3319, -8.0455 map

Latest reading · 2026-05-09 19:00 (Europe/Lisbon)

Temperature
17.1 °C
Humidity
64 %
Pressure
Precipitation
0.0 mm
Radiation
357 W/m²
Wind speed
25.9 km/h
Wind direction
SW · South-west

24-hour history

Time (Europe/Lisbon) Temp Humidity Pressure Rain Wind Dir
2026-05-09 19:00 17.1 °C 64 % 0.0 mm 25.9 km/h SW
2026-05-09 18:00 18.3 °C 58 % 0.0 mm 32.0 km/h SW
2026-05-09 17:00 18.7 °C 61 % 0.0 mm 31.3 km/h SW
2026-05-09 16:00 17.6 °C 70 % 0.5 mm 22.7 km/h S
2026-05-09 15:00 18.7 °C 56 % 0.0 mm 22.7 km/h SW
2026-05-09 14:00 17.9 °C 64 % 0.0 mm 24.8 km/h SW
2026-05-09 13:00 16.0 °C 81 % 1.0 mm 24.5 km/h SW
2026-05-09 12:00 16.1 °C 79 % 0.0 mm 25.2 km/h SW
2026-05-09 11:00 14.7 °C 96 % 0.0 mm 25.9 km/h SW
2026-05-09 10:00 13.6 °C 98 % 2.8 mm 15.5 km/h SW
2026-05-09 09:00 13.7 °C 97 % 0.5 mm 17.3 km/h SE
2026-05-09 08:00 13.1 °C 96 % 0.3 mm 16.9 km/h S
2026-05-09 07:00 12.8 °C 95 % 0.2 mm 20.5 km/h SE
2026-05-09 06:00 12.7 °C 95 % 0.0 mm 19.8 km/h SE
2026-05-09 05:00 12.9 °C 95 % 0.0 mm 14.4 km/h SE
2026-05-09 04:00 12.8 °C 96 % 0.0 mm 21.2 km/h SE
2026-05-09 03:00 12.7 °C 95 % 0.3 mm 16.2 km/h SE
2026-05-09 02:00 12.8 °C 95 % 0.1 mm 18.0 km/h SE
2026-05-09 01:00 12.1 °C 97 % 0.0 mm 18.7 km/h SE
2026-05-09 00:00 12.4 °C 95 % 0.4 mm 15.8 km/h SE
2026-05-08 23:00 13.7 °C 85 % 1.3 mm 22.7 km/h S
2026-05-08 22:00 14.1 °C 84 % 0.0 mm 14.8 km/h S
2026-05-08 21:00 15.3 °C 73 % 0.0 mm 18.0 km/h SW
2026-05-08 20:00 17.1 °C 60 % 0.0 mm 17.3 km/h SW